Marrowstone Island, Washington
Current Conditions -  °F | °C
As of 4:56 PM on Monday 26 Jan 2015 (Local Time) from KNUW Reporting Station
Haze Haze  
Wind Chill: 46°   Ceiling: 200
Heat Index: 48°   Visibility: 0.25mi
Dew Point: 46°   Wind: 5mph
Humidity: 93%   Direction: 240°WSW
Pressure: 29.92"   Gusts: NA
Location:  48.0545°N, 122.706°W
Report Text: KNUW 270056Z 24004KT 1/4SM BR BKN002 OVC020 09/08 A2992 RMK AO2 SFC VIS 1 SLP135 T00890078 VISNO E $
Loading
Personal Weather Stations






























Interactive Weather Map New forecast layout! Learn more

10-Day Weather Forecast

Advertisements
Track Severe Weather on mobile